sensor_id;sensor_type;location;lat;lon;timestamp;pressure;altitude;pressure_sealevel;temperature;humidity
28911;BME280;16028;42.642;23.310;2023-11-21T00:01:56;93843.88;;;5.71;96.07
28911;BME280;16028;42.642;23.310;2023-11-21T00:04:23;93834.63;;;5.69;95.69
28911;BME280;16028;42.642;23.310;2023-11-21T00:06:50;93840.59;;;5.80;95.96
28911;BME280;16028;42.642;23.310;2023-11-21T00:09:17;93843.28;;;5.79;95.82
28911;BME280;16028;42.642;23.310;2023-11-21T00:11:45;93836.59;;;5.76;96.04
28911;BME280;16028;42.642;23.310;2023-11-21T00:14:12;93842.13;;;5.72;96.45
28911;BME280;16028;42.642;23.310;2023-11-21T00:16:41;93848.44;;;5.79;96.38
28911;BME280;16028;42.642;23.310;2023-11-21T00:19:08;93840.59;;;5.80;96.38
28911;BME280;16028;42.642;23.310;2023-11-21T00:21:35;93849.94;;;5.81;96.78
28911;BME280;16028;42.642;23.310;2023-11-21T00:24:02;93842.84;;;5.74;97.03
28911;BME280;16028;42.642;23.310;2023-11-21T00:26:29;93830.88;;;5.73;97.15
28911;BME280;16028;42.642;23.310;2023-11-21T00:28:56;93841.88;;;5.75;96.83
28911;BME280;16028;42.642;23.310;2023-11-21T00:31:23;93828.78;;;5.67;96.84
28911;BME280;16028;42.642;23.310;2023-11-21T00:33:51;93832.53;;;5.74;97.38
28911;BME280;16028;42.642;23.310;2023-11-21T00:36:20;93816.81;;;5.66;97.80
28911;BME280;16028;42.642;23.310;2023-11-21T00:38:46;93820.31;;;5.65;98.03
28911;BME280;16028;42.642;23.310;2023-11-21T00:41:13;93825.94;;;5.70;97.66
28911;BME280;16028;42.642;23.310;2023-11-21T00:43:40;93820.78;;;5.70;98.12
28911;BME280;16028;42.642;23.310;2023-11-21T00:46:07;93835.78;;;5.76;97.69
28911;BME280;16028;42.642;23.310;2023-11-21T00:48:34;93836.03;;;5.73;97.99
28911;BME280;16028;42.642;23.310;2023-11-21T00:51:02;93836.28;;;5.70;97.82
28911;BME280;16028;42.642;23.310;2023-11-21T00:53:31;93833.63;;;5.60;98.11
28911;BME280;16028;42.642;23.310;2023-11-21T00:55:57;93838.38;;;5.65;97.60
28911;BME280;16028;42.642;23.310;2023-11-21T00:58:24;93824.47;;;5.56;97.89
28911;BME280;16028;42.642;23.310;2023-11-21T01:00:51;93816.63;;;5.58;98.03
28911;BME280;16028;42.642;23.310;2023-11-21T01:03:18;93825.78;;;5.51;97.40
28911;BME280;16028;42.642;23.310;2023-11-21T01:05:45;93815.47;;;5.51;97.78
28911;BME280;16028;42.642;23.310;2023-11-21T01:08:13;93828.72;;;5.46;97.05
28911;BME280;16028;42.642;23.310;2023-11-21T01:10:40;93814.56;;;5.41;97.49
28911;BME280;16028;42.642;23.310;2023-11-21T01:13:07;93807.19;;;5.36;98.05
28911;BME280;16028;42.642;23.310;2023-11-21T01:15:34;93811.41;;;5.37;98.22
28911;BME280;16028;42.642;23.310;2023-11-21T01:18:00;93814.56;;;5.41;98.15
28911;BME280;16028;42.642;23.310;2023-11-21T01:20:29;93813.72;;;5.40;98.11
28911;BME280;16028;42.642;23.310;2023-11-21T01:22:55;93825.59;;;5.31;97.89
28911;BME280;16028;42.642;23.310;2023-11-21T01:25:23;93835.09;;;5.31;98.06
28911;BME280;16028;42.642;23.310;2023-11-21T01:27:51;93827.03;;;5.24;98.28
28911;BME280;16028;42.642;23.310;2023-11-21T01:30:18;93831.94;;;5.27;98.66
28911;BME280;16028;42.642;23.310;2023-11-21T01:32:45;93821.38;;;5.30;98.37
28911;BME280;16028;42.642;23.310;2023-11-21T01:35:12;93815.06;;;5.23;98.07
28911;BME280;16028;42.642;23.310;2023-11-21T01:37:38;93814.13;;;5.24;98.36
28911;BME280;16028;42.642;23.310;2023-11-21T01:40:06;93819.03;;;5.27;98.24
28911;BME280;16028;42.642;23.310;2023-11-21T01:42:37;93819.03;;;5.27;97.78
28911;BME280;16028;42.642;23.310;2023-11-21T01:45:05;93826.19;;;5.24;97.64
28911;BME280;16028;42.642;23.310;2023-11-21T01:47:34;93823.88;;;5.21;98.07
28911;BME280;16028;42.642;23.310;2023-11-21T01:50:02;93821.19;;;5.22;97.61
28911;BME280;16028;42.642;23.310;2023-11-21T01:52:30;93813.44;;;5.11;97.30
28911;BME280;16028;42.642;23.310;2023-11-21T01:54:56;93814.19;;;5.02;97.55
28911;BME280;16028;42.642;23.310;2023-11-21T01:57:24;93816.16;;;4.99;98.17
28911;BME280;16028;42.642;23.310;2023-11-21T01:59:54;93817.44;;;5.04;98.89
28911;BME280;16028;42.642;23.310;2023-11-21T02:02:21;93821.81;;;5.04;98.40
28911;BME280;16028;42.642;23.310;2023-11-21T02:04:47;93813.59;;;4.99;98.92
28911;BME280;16028;42.642;23.310;2023-11-21T02:07:14;93821.09;;;5.02;98.43
28911;BME280;16028;42.642;23.310;2023-11-21T02:09:41;93820.88;;;4.94;98.80
28911;BME280;16028;42.642;23.310;2023-11-21T02:12:08;93821.09;;;5.02;99.08
28911;BME280;16028;42.642;23.310;2023-11-21T02:14:36;93822.50;;;4.95;98.65
28911;BME280;16028;42.642;23.310;2023-11-21T02:17:04;93820.75;;;4.95;99.22
28911;BME280;16028;42.642;23.310;2023-11-21T02:19:31;93817.81;;;5.00;98.71
28911;BME280;16028;42.642;23.310;2023-11-21T02:22:00;93815.81;;;4.92;99.23
28911;BME280;16028;42.642;23.310;2023-11-21T02:24:31;93822.16;;;4.99;98.84
28911;BME280;16028;42.642;23.310;2023-11-21T02:26:58;93814.19;;;4.91;99.51
28911;BME280;16028;42.642;23.310;2023-11-21T02:29:25;93822.50;;;4.95;99.71
28911;BME280;16028;42.642;23.310;2023-11-21T02:31:54;93812.19;;;4.95;99.47
28911;BME280;16028;42.642;23.310;2023-11-21T02:34:22;93804.59;;;4.93;100.00
28911;BME280;16028;42.642;23.310;2023-11-21T02:36:50;93808.91;;;4.93;100.00
28911;BME280;16028;42.642;23.310;2023-11-21T02:39:17;93806.22;;;4.94;100.00
28911;BME280;16028;42.642;23.310;2023-11-21T02:41:48;93811.72;;;5.01;100.00
28911;BME280;16028;42.642;23.310;2023-11-21T02:44:15;93807.38;;;5.01;99.50
28911;BME280;16028;42.642;23.310;2023-11-21T02:46:42;93808.22;;;4.91;99.27
28911;BME280;16028;42.642;23.310;2023-11-21T02:49:09;93802.69;;;4.95;99.62
28911;BME280;16028;42.642;23.310;2023-11-21T02:51:37;93806.56;;;4.90;99.21
28911;BME280;16028;42.642;23.310;2023-11-21T02:54:05;93806.47;;;4.91;99.78
28911;BME280;16028;42.642;23.310;2023-11-21T02:56:33;93813.97;;;4.83;99.24
28911;BME280;16028;42.642;23.310;2023-11-21T02:59:02;93804.81;;;4.79;99.91
28911;BME280;16028;42.642;23.310;2023-11-21T03:01:31;93804.59;;;4.82;99.83
28911;BME280;16028;42.642;23.310;2023-11-21T03:03:58;93798.03;;;4.89;100.00
28911;BME280;16028;42.642;23.310;2023-11-21T03:06:25;93804.34;;;4.85;99.49
28911;BME280;16028;42.642;23.310;2023-11-21T03:08:52;93798.50;;;4.83;99.50
28911;BME280;16028;42.642;23.310;2023-11-21T03:11:18;93798.50;;;4.83;99.58
28911;BME280;16028;42.642;23.310;2023-11-21T03:13:45;93800.38;;;4.81;99.69
28911;BME280;16028;42.642;23.310;2023-11-21T03:16:15;93790.19;;;4.91;98.62
28911;BME280;16028;42.642;23.310;2023-11-21T03:18:42;93804.94;;;4.89;98.53
28911;BME280;16028;42.642;23.310;2023-11-21T03:21:09;93809.03;;;4.80;99.21
28911;BME280;16028;42.642;23.310;2023-11-21T03:23:36;93805.06;;;4.76;99.22
28911;BME280;16028;42.642;23.310;2023-11-21T03:26:03;93815.94;;;4.79;100.00
28911;BME280;16028;42.642;23.310;2023-11-21T03:28:31;93820.50;;;4.76;100.00
28911;BME280;16028;42.642;23.310;2023-11-21T03:30:58;93823.56;;;4.81;100.00
28911;BME280;16028;42.642;23.310;2023-11-21T03:33:26;93819.59;;;4.77;100.00
28911;BME280;16028;42.642;23.310;2023-11-21T03:35:53;93814.53;;;4.75;100.00
28911;BME280;16028;42.642;23.310;2023-11-21T03:38:19;93816.53;;;4.83;100.00
28911;BME280;16028;42.642;23.310;2023-11-21T03:40:46;93818.06;;;4.86;100.00
28911;BME280;16028;42.642;23.310;2023-11-21T03:43:13;93814.88;;;4.93;100.00
28911;BME280;16028;42.642;23.310;2023-11-21T03:45:40;93813.13;;;4.82;100.00
28911;BME280;16028;42.642;23.310;2023-11-21T03:48:07;93793.34;;;4.83;100.00
28911;BME280;16028;42.642;23.310;2023-11-21T03:50:35;93791.47;;;4.85;100.00
28911;BME280;16028;42.642;23.310;2023-11-21T03:53:02;93790.44;;;4.88;100.00
28911;BME280;16028;42.642;23.310;2023-11-21T03:55:29;93783.28;;;4.91;100.00
28911;BME280;16028;42.642;23.310;2023-11-21T03:57:57;93787.22;;;4.95;100.00
28911;BME280;16028;42.642;23.310;2023-11-21T04:00:24;93787.00;;;4.98;100.00
28911;BME280;16028;42.642;23.310;2023-11-21T04:02:52;93785.00;;;5.02;100.00
28911;BME280;16028;42.642;23.310;2023-11-21T04:05:20;93782.31;;;5.03;100.00
28911;BME280;16028;42.642;23.310;2023-11-21T04:07:48;93775.28;;;5.05;100.00
28911;BME280;16028;42.642;23.310;2023-11-21T04:10:15;93785.34;;;5.08;100.00
28911;BME280;16028;42.642;23.310;2023-11-21T04:12:42;93783.25;;;5.13;100.00
28911;BME280;16028;42.642;23.310;2023-11-21T04:15:10;93778.09;;;5.13;100.00
28911;BME280;16028;42.642;23.310;2023-11-21T04:17:38;93772.34;;;5.10;100.00
28911;BME280;16028;42.642;23.310;2023-11-21T04:20:06;93771.03;;;5.15;100.00
28911;BME280;16028;42.642;23.310;2023-11-21T04:22:36;93770.59;;;5.10;100.00
28911;BME280;16028;42.642;23.310;2023-11-21T04:25:08;93773.72;;;5.14;100.00
28911;BME280;16028;42.642;23.310;2023-11-21T04:27:34;93776.53;;;5.11;100.00
28911;BME280;16028;42.642;23.310;2023-11-21T04:30:01;93776.69;;;5.09;100.00
28911;BME280;16028;42.642;23.310;2023-11-21T04:32:28;93777.38;;;5.11;100.00
28911;BME280;16028;42.642;23.310;2023-11-21T04:34:55;93780.19;;;5.08;99.86
28911;BME280;16028;42.642;23.310;2023-11-21T04:37:21;93783.94;;;5.15;100.00
28911;BME280;16028;42.642;23.310;2023-11-21T04:39:48;93776.28;;;5.14;100.00
28911;BME280;16028;42.642;23.310;2023-11-21T04:42:17;93776.78;;;5.08;100.00
28911;BME280;16028;42.642;23.310;2023-11-21T04:44:43;93778.56;;;5.07;100.00
28911;BME280;16028;42.642;23.310;2023-11-21T04:47:10;93779.25;;;5.09;100.00
28911;BME280;16028;42.642;23.310;2023-11-21T04:49:37;93776.78;;;5.08;99.81
28911;BME280;16028;42.642;23.310;2023-11-21T04:52:04;93782.06;;;5.06;100.00
28911;BME280;16028;42.642;23.310;2023-11-21T04:54:31;93792.50;;;5.05;99.68
28911;BME280;16028;42.642;23.310;2023-11-21T04:56:57;93794.03;;;4.96;99.86
28911;BME280;16028;42.642;23.310;2023-11-21T04:59:27;93793.22;;;4.96;100.00
28911;BME280;16028;42.642;23.310;2023-11-21T05:01:54;93789.13;;;4.93;100.00
28911;BME280;16028;42.642;23.310;2023-11-21T05:04:21;93788.06;;;4.96;100.00
28911;BME280;16028;42.642;23.310;2023-11-21T05:06:48;93790.41;;;4.99;100.00
28911;BME280;16028;42.642;23.310;2023-11-21T05:09:15;93794.03;;;4.96;100.00
28911;BME280;16028;42.642;23.310;2023-11-21T05:11:41;93790.97;;;5.02;99.85
28911;BME280;16028;42.642;23.310;2023-11-21T05:14:08;93781.84;;;4.98;99.76
28911;BME280;16028;42.642;23.310;2023-11-21T05:16:36;93778.56;;;4.96;100.00
28911;BME280;16028;42.642;23.310;2023-11-21T05:19:03;93777.41;;;5.00;100.00
28911;BME280;16028;42.642;23.310;2023-11-21T05:21:30;93785.13;;;5.00;100.00
28911;BME280;16028;42.642;23.310;2023-11-21T05:23:58;93780.47;;;4.94;100.00
28911;BME280;16028;42.642;23.310;2023-11-21T05:26:25;93775.91;;;4.87;100.00
28911;BME280;16028;42.642;23.310;2023-11-21T05:28:52;93779.41;;;4.86;100.00
28911;BME280;16028;42.642;23.310;2023-11-21T05:31:18;93788.44;;;4.91;100.00
28911;BME280;16028;42.642;23.310;2023-11-21T05:33:47;93790.66;;;4.85;100.00
28911;BME280;16028;42.642;23.310;2023-11-21T05:36:13;93789.22;;;4.92;100.00
28911;BME280;16028;42.642;23.310;2023-11-21T05:38:40;93792.63;;;4.92;100.00
28911;BME280;16028;42.642;23.310;2023-11-21T05:41:08;93796.50;;;4.98;100.00
28911;BME280;16028;42.642;23.310;2023-11-21T05:43:37;93800.25;;;4.94;100.00
28911;BME280;16028;42.642;23.310;2023-11-21T05:46:04;93798.59;;;4.93;100.00
28911;BME280;16028;42.642;23.310;2023-11-21T05:48:32;93793.34;;;4.94;100.00
28911;BME280;16028;42.642;23.310;2023-11-21T05:51:00;93795.00;;;4.84;100.00
28911;BME280;16028;42.642;23.310;2023-11-21T05:53:28;93793.59;;;4.80;100.00
28911;BME280;16028;42.642;23.310;2023-11-21T05:55:54;93793.00;;;4.76;100.00
28911;BME280;16028;42.642;23.310;2023-11-21T05:58:22;93785.84;;;4.80;100.00
28911;BME280;16028;42.642;23.310;2023-11-21T06:00:49;93798.50;;;4.83;100.00
28911;BME280;16028;42.642;23.310;2023-11-21T06:03:16;93794.75;;;4.87;100.00
28911;BME280;16028;42.642;23.310;2023-11-21T06:05:42;93796.16;;;4.91;100.00
28911;BME280;16028;42.642;23.310;2023-11-21T06:08:11;93786.06;;;4.99;100.00
28911;BME280;16028;42.642;23.310;2023-11-21T06:10:38;93790.03;;;5.03;100.00
28911;BME280;16028;42.642;23.310;2023-11-21T06:13:05;93798.72;;;5.02;100.00
28911;BME280;16028;42.642;23.310;2023-11-21T06:15:32;93806.56;;;5.01;100.00
28911;BME280;16028;42.642;23.310;2023-11-21T06:17:59;93798.03;;;5.00;100.00
28911;BME280;16028;42.642;23.310;2023-11-21T06:20:26;93809.72;;;5.04;100.00
28911;BME280;16028;42.642;23.310;2023-11-21T06:22:53;93800.94;;;5.07;100.00
28911;BME280;16028;42.642;23.310;2023-11-21T06:25:22;93811.59;;;5.02;100.00
28911;BME280;16028;42.642;23.310;2023-11-21T06:27:50;93812.06;;;4.96;100.00
28911;BME280;16028;42.642;23.310;2023-11-21T06:30:19;93805.75;;;5.00;100.00
28911;BME280;16028;42.642;23.310;2023-11-21T06:32:47;93806.91;;;5.07;100.00
28911;BME280;16028;42.642;23.310;2023-11-21T06:35:14;93816.16;;;5.10;100.00
28911;BME280;16028;42.642;23.310;2023-11-21T06:37:41;93814.03;;;5.15;100.00
28911;BME280;16028;42.642;23.310;2023-11-21T06:40:13;93818.94;;;5.18;100.00
28911;BME280;16028;42.642;23.310;2023-11-21T06:42:41;93825.06;;;5.17;100.00
28911;BME280;16028;42.642;23.310;2023-11-21T06:45:09;93827.75;;;5.15;100.00
28911;BME280;16028;42.642;23.310;2023-11-21T06:47:36;93830.41;;;5.25;100.00
28911;BME280;16028;42.642;23.310;2023-11-21T06:50:05;93824.19;;;5.27;100.00
28911;BME280;16028;42.642;23.310;2023-11-21T06:52:32;93826.44;;;5.32;100.00
28911;BME280;16028;42.642;23.310;2023-11-21T06:54:59;93836.28;;;5.27;100.00
28911;BME280;16028;42.642;23.310;2023-11-21T06:57:26;93829.59;;;5.36;100.00
28911;BME280;16028;42.642;23.310;2023-11-21T06:59:54;93833.09;;;5.34;100.00
28911;BME280;16028;42.642;23.310;2023-11-21T07:02:22;93824.78;;;5.42;100.00
28911;BME280;16028;42.642;23.310;2023-11-21T07:04:49;93837.91;;;5.39;100.00
28911;BME280;16028;42.642;23.310;2023-11-21T07:07:16;93835.78;;;5.44;100.00
28911;BME280;16028;42.642;23.310;2023-11-21T07:09:43;93829.28;;;5.50;100.00
28911;BME280;16028;42.642;23.310;2023-11-21T07:12:10;93818.03;;;5.51;100.00
28911;BME280;16028;42.642;23.310;2023-11-21T07:14:37;93820.38;;;5.54;100.00
28911;BME280;16028;42.642;23.310;2023-11-21T07:17:06;93813.91;;;5.59;99.88
28911;BME280;16028;42.642;23.310;2023-11-21T07:19:32;93816.97;;;5.64;100.00
28911;BME280;16028;42.642;23.310;2023-11-21T07:21:59;93820.31;;;5.65;99.23
28911;BME280;16028;42.642;23.310;2023-11-21T07:24:26;93818.81;;;5.62;99.59
28911;BME280;16028;42.642;23.310;2023-11-21T07:26:53;93819.66;;;5.63;99.46
28911;BME280;16028;42.642;23.310;2023-11-21T07:29:22;93818.25;;;5.59;99.46
28911;BME280;16028;42.642;23.310;2023-11-21T07:31:51;93826.69;;;5.61;99.92
28911;BME280;16028;42.642;23.310;2023-11-21T07:34:19;93815.16;;;5.65;99.45
28911;BME280;16028;42.642;23.310;2023-11-21T07:36:46;93827.63;;;5.60;100.00
28911;BME280;16028;42.642;23.310;2023-11-21T07:39:13;93824.94;;;5.61;100.00
28911;BME280;16028;42.642;23.310;2023-11-21T07:41:41;93811.16;;;5.72;100.00
28911;BME280;16028;42.642;23.310;2023-11-21T07:44:14;93824.53;;;5.77;100.00
28911;BME280;16028;42.642;23.310;2023-11-21T07:46:42;93816.91;;;5.87;100.00
28911;BME280;16028;42.642;23.310;2023-11-21T07:49:09;93819.47;;;5.87;100.00
28911;BME280;16028;42.642;23.310;2023-11-21T07:51:37;93819.47;;;5.87;100.00
28911;BME280;16028;42.642;23.310;2023-11-21T07:54:04;93809.84;;;5.89;100.00
28911;BME280;16028;42.642;23.310;2023-11-21T07:56:32;93813.81;;;5.93;100.00
28911;BME280;16028;42.642;23.310;2023-11-21T07:58:58;93809.41;;;6.04;100.00
28911;BME280;16028;42.642;23.310;2023-11-21T08:01:25;93804.38;;;6.03;100.00
28911;BME280;16028;42.642;23.310;2023-11-21T08:03:53;93809.16;;;6.07;100.00
28911;BME280;16028;42.642;23.310;2023-11-21T08:06:22;93807.38;;;6.08;100.00
28911;BME280;16028;42.642;23.310;2023-11-21T08:08:52;93810.03;;;6.17;100.00
28911;BME280;16028;42.642;23.310;2023-11-21T08:11:19;93804.75;;;6.19;100.00
28911;BME280;16028;42.642;23.310;2023-11-21T08:13:46;93801.72;;;6.34;100.00
28911;BME280;16028;42.642;23.310;2023-11-21T08:16:13;93801.88;;;6.43;100.00
28911;BME280;16028;42.642;23.310;2023-11-21T08:18:41;93803.53;;;6.44;99.23
28911;BME280;16028;42.642;23.310;2023-11-21T08:21:07;93793.41;;;6.61;98.81
28911;BME280;16028;42.642;23.310;2023-11-21T08:23:34;93796.41;;;6.57;98.64
28911;BME280;16028;42.642;23.310;2023-11-21T08:26:04;93803.19;;;6.58;99.57
28911;BME280;16028;42.642;23.310;2023-11-21T08:28:31;93804.75;;;6.70;100.00
28911;BME280;16028;42.642;23.310;2023-11-21T08:30:57;93804.50;;;6.73;99.46
28911;BME280;16028;42.642;23.310;2023-11-21T08:33:24;93800.25;;;6.72;99.60
28911;BME280;16028;42.642;23.310;2023-11-21T08:35:51;93795.41;;;6.78;100.00
28911;BME280;16028;42.642;23.310;2023-11-21T08:38:18;93795.69;;;6.85;100.00
28911;BME280;16028;42.642;23.310;2023-11-21T08:40:45;93790.81;;;6.91;100.00
28911;BME280;16028;42.642;23.310;2023-11-21T08:43:13;93792.09;;;7.16;98.79
28911;BME280;16028;42.642;23.310;2023-11-21T08:45:41;93795.00;;;7.32;97.07
28911;BME280;16028;42.642;23.310;2023-11-21T08:48:08;93795.53;;;7.26;96.88
28911;BME280;16028;42.642;23.310;2023-11-21T08:50:37;93786.69;;;7.29;97.99
28911;BME280;16028;42.642;23.310;2023-11-21T08:53:03;93786.03;;;7.36;96.87
28911;BME280;16028;42.642;23.310;2023-11-21T08:55:31;93785.63;;;7.51;96.48
28911;BME280;16028;42.642;23.310;2023-11-21T08:58:05;93777.47;;;7.65;94.37
28911;BME280;16028;42.642;23.310;2023-11-21T09:00:33;93769.97;;;7.62;94.25
28911;BME280;16028;42.642;23.310;2023-11-21T09:03:01;93769.97;;;7.52;93.39
28911;BME280;16028;42.642;23.310;2023-11-21T09:05:28;93761.66;;;7.49;93.81
28911;BME280;16028;42.642;23.310;2023-11-21T09:07:54;93750.09;;;7.62;93.07
28911;BME280;16028;42.642;23.310;2023-11-21T09:10:21;93738.91;;;7.62;90.79
28911;BME280;16028;42.642;23.310;2023-11-21T09:12:49;93738.91;;;7.42;92.10
28911;BME280;16028;42.642;23.310;2023-11-21T09:15:17;93729.78;;;7.38;94.58
28911;BME280;16028;42.642;23.310;2023-11-21T09:17:47;93732.75;;;7.43;95.92
28911;BME280;16028;42.642;23.310;2023-11-21T09:20:14;93726.66;;;7.44;96.01
28911;BME280;16028;42.642;23.310;2023-11-21T09:22:41;93719.72;;;7.55;95.15
28911;BME280;16028;42.642;23.310;2023-11-21T09:25:10;93710.44;;;7.62;95.11
28911;BME280;16028;42.642;23.310;2023-11-21T09:27:38;93711.38;;;7.70;94.96
28911;BME280;16028;42.642;23.310;2023-11-21T09:30:06;93698.31;;;7.81;94.77
28911;BME280;16028;42.642;23.310;2023-11-21T09:32:35;93694.31;;;7.96;90.34
28911;BME280;16028;42.642;23.310;2023-11-21T09:35:05;93677.56;;;8.01;91.44
28911;BME280;16028;42.642;23.310;2023-11-21T09:37:33;93670.94;;;8.25;90.38
28911;BME280;16028;42.642;23.310;2023-11-21T09:40:01;93676.09;;;8.25;90.52
28911;BME280;16028;42.642;23.310;2023-11-21T09:42:34;93678.16;;;8.31;91.85
28911;BME280;16028;42.642;23.310;2023-11-21T09:45:05;93675.31;;;8.52;87.61
28911;BME280;16028;42.642;23.310;2023-11-21T09:47:38;93659.00;;;8.69;84.95
28911;BME280;16028;42.642;23.310;2023-11-21T09:50:07;93644.75;;;8.56;85.10
28911;BME280;16028;42.642;23.310;2023-11-21T09:52:43;93645.56;;;8.56;87.85
28911;BME280;16028;42.642;23.310;2023-11-21T09:55:13;93641.78;;;8.50;88.82
28911;BME280;16028;42.642;23.310;2023-11-21T09:57:44;93634.56;;;8.72;85.42
28911;BME280;16028;42.642;23.310;2023-11-21T10:00:16;93631.16;;;8.71;84.71
28911;BME280;16028;42.642;23.310;2023-11-21T10:02:46;93626.78;;;8.72;85.86
28911;BME280;16028;42.642;23.310;2023-11-21T10:05:17;93623.25;;;8.90;84.38
28911;BME280;16028;42.642;23.310;2023-11-21T10:07:45;93622.81;;;8.95;84.98
28911;BME280;16028;42.642;23.310;2023-11-21T10:10:13;93625.06;;;8.90;86.11
28911;BME280;16028;42.642;23.310;2023-11-21T10:12:43;93619.78;;;8.99;86.34
28911;BME280;16028;42.642;23.310;2023-11-21T10:15:15;93618.59;;;9.29;83.36
28911;BME280;16028;42.642;23.310;2023-11-21T10:17:44;93610.50;;;9.32;82.34
28911;BME280;16028;42.642;23.310;2023-11-21T10:20:12;93613.41;;;9.29;84.27
28911;BME280;16028;42.642;23.310;2023-11-21T10:22:41;93603.13;;;9.63;79.44
28911;BME280;16028;42.642;23.310;2023-11-21T10:25:09;93593.75;;;9.70;79.48
28911;BME280;16028;42.642;23.310;2023-11-21T10:27:37;93608.09;;;9.56;80.93
28911;BME280;16028;42.642;23.310;2023-11-21T10:30:05;93599.41;;;9.66;80.55
28911;BME280;16028;42.642;23.310;2023-11-21T10:32:33;93602.03;;;9.74;78.74
28911;BME280;16028;42.642;23.310;2023-11-21T10:35:00;93603.47;;;9.68;81.45
28911;BME280;16028;42.642;23.310;2023-11-21T10:37:31;93596.41;;;9.78;81.17
28911;BME280;16028;42.642;23.310;2023-11-21T10:40:00;93591.13;;;9.96;78.31
28911;BME280;16028;42.642;23.310;2023-11-21T10:42:27;93578.13;;;9.88;79.62
28911;BME280;16028;42.642;23.310;2023-11-21T10:44:54;93585.28;;;9.94;79.65
28911;BME280;16028;42.642;23.310;2023-11-21T10:47:21;93586.09;;;9.94;80.26
28911;BME280;16028;42.642;23.310;2023-11-21T10:49:49;93583.53;;;10.02;79.14
28911;BME280;16028;42.642;23.310;2023-11-21T10:52:19;93583.44;;;10.12;77.53
28911;BME280;16028;42.642;23.310;2023-11-21T10:54:46;93572.44;;;10.18;76.85
28911;BME280;16028;42.642;23.310;2023-11-21T10:57:18;93571.16;;;10.22;76.02
28911;BME280;16028;42.642;23.310;2023-11-21T10:59:46;93566.63;;;10.24;78.48
28911;BME280;16028;42.642;23.310;2023-11-21T11:02:23;93564.19;;;10.31;76.90
28911;BME280;16028;42.642;23.310;2023-11-21T11:04:52;93573.88;;;10.54;72.31
28911;BME280;16028;42.642;23.310;2023-11-21T11:07:21;93569.38;;;10.65;70.20
28911;BME280;16028;42.642;23.310;2023-11-21T11:09:48;93561.38;;;10.58;71.03
28911;BME280;16028;42.642;23.310;2023-11-21T11:12:17;93560.31;;;10.35;72.84
28911;BME280;16028;42.642;23.310;2023-11-21T11:14:44;93561.28;;;10.26;74.49
28911;BME280;16028;42.642;23.310;2023-11-21T11:17:11;93556.13;;;10.50;72.60
28911;BME280;16028;42.642;23.310;2023-11-21T11:19:39;93543.00;;;10.59;71.75
28911;BME280;16028;42.642;23.310;2023-11-21T11:22:16;93542.69;;;10.62;69.28
28911;BME280;16028;42.642;23.310;2023-11-21T11:25:01;93522.84;;;10.45;70.44
28911;BME280;16028;42.642;23.310;2023-11-21T11:27:47;93522.00;;;10.45;71.64
28911;BME280;16028;42.642;23.310;2023-11-21T11:30:23;93514.66;;;10.32;73.28
28911;BME280;16028;42.642;23.310;2023-11-21T11:33:00;93515.81;;;10.30;75.26
28911;BME280;16028;42.642;23.310;2023-11-21T11:35:35;93520.69;;;10.33;74.43
28911;BME280;16028;42.642;23.310;2023-11-21T11:38:04;93519.28;;;10.46;74.55
28911;BME280;16028;42.642;23.310;2023-11-21T11:40:41;93504.94;;;10.42;74.94
28911;BME280;16028;42.642;23.310;2023-11-21T11:43:09;93516.22;;;10.59;72.47
28911;BME280;16028;42.642;23.310;2023-11-21T11:45:37;93519.41;;;10.45;73.96
28911;BME280;16028;42.642;23.310;2023-11-21T11:48:07;93517.97;;;10.50;76.28
28911;BME280;16028;42.642;23.310;2023-11-21T11:50:34;93533.41;;;10.52;76.83
28911;BME280;16028;42.642;23.310;2023-11-21T11:53:15;93539.25;;;10.54;75.95
28911;BME280;16028;42.642;23.310;2023-11-21T11:55:43;93525.25;;;10.47;76.90
28911;BME280;16028;42.642;23.310;2023-11-21T11:58:11;93523.38;;;10.65;72.95
28911;BME280;16028;42.642;23.310;2023-11-21T12:00:38;93502.72;;;10.72;73.46
28911;BME280;16028;42.642;23.310;2023-11-21T12:03:07;93509.38;;;10.66;73.50
28911;BME280;16028;42.642;23.310;2023-11-21T12:05:35;93523.84;;;10.52;73.45
28911;BME280;16028;42.642;23.310;2023-11-21T12:08:05;93530.94;;;10.42;76.33
28911;BME280;16028;42.642;23.310;2023-11-21T12:10:38;93522.78;;;10.29;77.21
28911;BME280;16028;42.642;23.310;2023-11-21T12:13:06;93527.16;;;10.29;78.43
28911;BME280;16028;42.642;23.310;2023-11-21T12:15:35;93528.31;;;10.34;79.65
28911;BME280;16028;42.642;23.310;2023-11-21T12:18:03;93538.06;;;10.32;78.57
28911;BME280;16028;42.642;23.310;2023-11-21T12:20:30;93531.53;;;10.28;79.76
28911;BME280;16028;42.642;23.310;2023-11-21T12:22:59;93533.19;;;10.29;78.61
28911;BME280;16028;42.642;23.310;2023-11-21T12:25:27;93508.69;;;10.48;79.65
28911;BME280;16028;42.642;23.310;2023-11-21T12:27:56;93506.06;;;10.32;80.53
28911;BME280;16028;42.642;23.310;2023-11-21T12:30:24;93518.03;;;10.17;82.17
28911;BME280;16028;42.642;23.310;2023-11-21T12:32:55;93515.34;;;10.08;82.88
28911;BME280;16028;42.642;23.310;2023-11-21T12:35:24;93519.25;;;10.04;82.65
28911;BME280;16028;42.642;23.310;2023-11-21T12:37:52;93529.78;;;10.03;81.58
28911;BME280;16028;42.642;23.310;2023-11-21T12:40:20;93531.38;;;9.96;82.26
28911;BME280;16028;42.642;23.310;2023-11-21T12:42:51;93518.91;;;9.99;81.10
28911;BME280;16028;42.642;23.310;2023-11-21T12:45:20;93515.34;;;10.00;81.83
28911;BME280;16028;42.642;23.310;2023-11-21T12:47:48;93511.28;;;9.98;82.33
28911;BME280;16028;42.642;23.310;2023-11-21T12:50:18;93508.38;;;10.01;81.72
28911;BME280;16028;42.642;23.310;2023-11-21T12:52:49;93500.91;;;10.06;82.25
28911;BME280;16028;42.642;23.310;2023-11-21T12:55:17;93493.88;;;10.24;81.73
28911;BME280;16028;42.642;23.310;2023-11-21T12:57:48;93498.38;;;10.14;80.03
28911;BME280;16028;42.642;23.310;2023-11-21T13:00:16;93490.19;;;10.01;81.29